createdAt,value
2023-02-18T00:00:07.572Z,61.60
2023-02-18T00:02:34.263Z,60.70
2023-02-18T00:05:00.995Z,60.80
2023-02-18T00:07:27.645Z,60.90
2023-02-18T00:09:55.316Z,60.90
2023-02-18T00:12:21.924Z,60.70
2023-02-18T00:14:48.607Z,60.80
2023-02-18T00:17:15.311Z,61.50
2023-02-18T00:19:42.075Z,61.80
2023-02-18T00:22:09.902Z,61.00
2023-02-18T00:24:38.978Z,61.40
2023-02-18T00:27:05.726Z,61.20
2023-02-18T00:29:33.890Z,61.70
2023-02-18T00:32:00.673Z,61.80
2023-02-18T00:34:29.767Z,61.60
2023-02-18T00:36:56.486Z,61.00
2023-02-18T00:39:24.339Z,61.00
2023-02-18T00:41:51.013Z,60.80
2023-02-18T00:44:17.735Z,61.00
2023-02-18T00:46:44.693Z,61.10
2023-02-18T00:49:11.404Z,60.90
2023-02-18T00:51:38.194Z,60.90
2023-02-18T00:54:05.053Z,61.10
2023-02-18T00:56:33.100Z,61.10
2023-02-18T00:58:59.792Z,60.90
2023-02-18T01:01:27.829Z,61.00
2023-02-18T01:03:54.712Z,62.10
2023-02-18T01:06:22.389Z,61.10
2023-02-18T01:08:49.797Z,61.20
2023-02-18T01:11:16.763Z,62.00
2023-02-18T01:13:43.586Z,62.10
2023-02-18T01:16:11.220Z,61.60
2023-02-18T01:18:38.702Z,62.10
2023-02-18T01:21:08.899Z,61.10
2023-02-18T01:23:38.243Z,62.10
2023-02-18T01:26:05.900Z,61.00
2023-02-18T01:28:33.618Z,62.10
2023-02-18T01:31:06.691Z,61.00
2023-02-18T01:33:34.321Z,61.10
2023-02-18T01:36:01.423Z,61.10
2023-02-18T01:38:28.460Z,62.50
2023-02-18T01:40:55.346Z,61.30
2023-02-18T01:43:22.340Z,61.50
2023-02-18T01:46:03.853Z,61.70
2023-02-18T01:48:53.148Z,61.10
2023-02-18T01:51:28.078Z,61.10
2023-02-18T01:54:06.439Z,61.10
2023-02-18T01:56:37.037Z,61.10
2023-02-18T01:59:07.563Z,61.10
2023-02-18T02:01:34.752Z,61.10
2023-02-18T02:04:01.731Z,61.10
2023-02-18T02:06:28.520Z,61.20
2023-02-18T02:08:56.335Z,61.50
2023-02-18T02:11:23.017Z,61.20
2023-02-18T02:13:58.288Z,61.30
2023-02-18T02:16:47.126Z,61.20
2023-02-18T02:19:22.666Z,61.20
2023-02-18T02:21:55.413Z,61.20
2023-02-18T02:24:38.174Z,61.10
2023-02-18T02:27:21.282Z,61.20
2023-02-18T02:30:06.603Z,61.20
2023-02-18T02:32:33.307Z,61.20
2023-02-18T02:35:03.080Z,62.20
2023-02-18T02:37:32.813Z,61.20
2023-02-18T02:40:11.754Z,61.20
2023-02-18T02:43:17.167Z,61.20
2023-02-18T02:45:49.674Z,61.20
2023-02-18T02:48:24.653Z,61.20
2023-02-18T02:50:54.968Z,61.20
2023-02-18T02:53:24.449Z,61.40
2023-02-18T02:55:51.149Z,61.30
2023-02-18T02:58:20.074Z,61.70
2023-02-18T03:00:57.312Z,61.30
2023-02-18T03:03:39.040Z,61.20
2023-02-18T03:06:23.228Z,61.20
2023-02-18T03:08:53.116Z,61.20
2023-02-18T03:11:19.953Z,61.20
2023-02-18T03:13:55.871Z,61.40
2023-02-18T03:16:25.870Z,62.20
2023-02-18T03:19:02.253Z,61.50
2023-02-18T03:21:31.887Z,61.20
2023-02-18T03:24:07.249Z,61.20
2023-02-18T03:26:36.888Z,61.30
2023-02-18T03:29:05.654Z,62.20
2023-02-18T03:31:34.289Z,61.30
2023-02-18T03:34:03.919Z,61.30
2023-02-18T03:36:32.388Z,61.40
2023-02-18T03:39:01.912Z,61.30
2023-02-18T03:41:29.610Z,61.30
2023-02-18T03:44:03.804Z,62.10
2023-02-18T03:46:32.897Z,62.70
2023-02-18T03:48:59.736Z,62.60
2023-02-18T03:51:28.154Z,62.00
2023-02-18T03:53:55.027Z,62.20
2023-02-18T03:56:22.887Z,61.50
2023-02-18T03:58:50.032Z,62.80
2023-02-18T04:01:16.877Z,62.70
2023-02-18T04:03:43.670Z,61.90
2023-02-18T04:06:10.689Z,61.70
2023-02-18T04:08:37.511Z,62.50
2023-02-18T04:11:05.647Z,61.50
2023-02-18T04:13:32.495Z,61.50
2023-02-18T04:15:59.378Z,62.70
2023-02-18T04:18:27.093Z,63.00
2023-02-18T04:20:53.891Z,61.80
2023-02-18T04:23:20.925Z,62.20
2023-02-18T04:25:47.606Z,61.90
2023-02-18T04:28:15.263Z,61.70
2023-02-18T04:30:42.420Z,61.50
2023-02-18T04:33:09.233Z,61.90
2023-02-18T04:35:36.804Z,61.70
2023-02-18T04:38:03.656Z,61.70
2023-02-18T04:40:30.736Z,61.60
2023-02-18T04:42:58.670Z,61.50
2023-02-18T04:45:26.888Z,62.40
2023-02-18T04:47:54.277Z,62.00
2023-02-18T04:50:21.472Z,62.20
2023-02-18T04:52:48.189Z,61.50
2023-02-18T04:55:14.957Z,61.80
2023-02-18T04:57:41.670Z,61.50
2023-02-18T05:00:09.405Z,61.70
2023-02-18T05:02:36.092Z,60.90
2023-02-18T05:05:02.840Z,61.50
2023-02-18T05:07:29.454Z,61.40
2023-02-18T05:09:56.178Z,62.80
2023-02-18T05:12:22.817Z,61.30
2023-02-18T05:14:49.533Z,61.40
2023-02-18T05:17:16.240Z,61.50
2023-02-18T05:19:43.022Z,61.50
2023-02-18T05:22:09.796Z,61.40
2023-02-18T05:24:36.399Z,61.50
2023-02-18T05:27:04.073Z,61.40
2023-02-18T05:29:30.765Z,61.20
2023-02-18T05:31:57.720Z,61.40
2023-02-18T05:34:24.430Z,61.30
2023-02-18T05:36:51.179Z,61.20
2023-02-18T05:39:17.889Z,61.20
2023-02-18T05:41:44.649Z,61.30
2023-02-18T05:44:29.840Z,61.30
2023-02-18T05:47:07.401Z,61.20
2023-02-18T05:49:36.636Z,61.10
2023-02-18T05:52:03.828Z,61.00
2023-02-18T05:54:30.635Z,61.10
2023-02-18T05:56:57.313Z,61.10
2023-02-18T05:59:24.145Z,60.90
2023-02-18T06:01:50.891Z,60.90
2023-02-18T06:04:17.564Z,60.90
2023-02-18T06:06:44.197Z,60.90
2023-02-18T06:09:11.085Z,60.70
2023-02-18T06:11:38.178Z,60.80
2023-02-18T06:14:04.993Z,60.80
2023-02-18T06:16:31.986Z,60.80
2023-02-18T06:18:59.019Z,60.70
2023-02-18T06:21:25.741Z,60.80
2023-02-18T06:23:52.498Z,60.80
2023-02-18T06:26:19.612Z,60.70
2023-02-18T06:28:46.265Z,60.70
2023-02-18T06:31:13.027Z,60.80
2023-02-18T06:33:39.855Z,60.90
2023-02-18T06:36:08.682Z,60.50
2023-02-18T06:38:35.756Z,60.40
2023-02-18T06:41:02.433Z,60.60
2023-02-18T06:43:29.124Z,60.60
2023-02-18T06:45:55.930Z,60.40
2023-02-18T06:48:22.712Z,60.50
2023-02-18T06:50:49.521Z,60.50
2023-02-18T06:53:17.645Z,60.40
2023-02-18T06:55:44.847Z,60.30
2023-02-18T06:58:11.725Z,60.40
2023-02-18T07:00:38.472Z,60.50
2023-02-18T07:03:05.410Z,60.40
2023-02-18T07:05:32.132Z,60.40
2023-02-18T07:07:58.929Z,60.30
2023-02-18T07:10:25.617Z,60.30
2023-02-18T07:12:52.291Z,60.40
2023-02-18T07:15:24.073Z,60.50
2023-02-18T07:17:51.536Z,60.30
2023-02-18T07:20:18.926Z,60.20
2023-02-18T07:22:45.615Z,60.20
2023-02-18T07:25:12.534Z,60.10
2023-02-18T07:27:39.167Z,60.10
2023-02-18T07:30:06.358Z,60.00
2023-02-18T07:32:32.992Z,60.00
2023-02-18T07:34:59.740Z,60.50
2023-02-18T07:37:26.526Z,60.10
2023-02-18T07:39:53.256Z,60.00
2023-02-18T07:42:19.884Z,60.00
2023-02-18T07:44:46.589Z,60.10
2023-02-18T07:47:14.563Z,60.00
2023-02-18T07:49:41.314Z,59.80
2023-02-18T07:52:08.256Z,59.80
2023-02-18T07:54:35.308Z,59.90
2023-02-18T07:57:02.013Z,59.90
2023-02-18T07:59:28.751Z,60.00
2023-02-18T08:01:55.505Z,60.00
2023-02-18T08:04:22.386Z,60.10
2023-02-18T08:06:49.756Z,60.80
2023-02-18T08:09:17.355Z,59.80
2023-02-18T08:11:44.138Z,59.80
2023-02-18T08:14:10.859Z,59.90
2023-02-18T08:16:37.601Z,59.90
2023-02-18T08:19:04.369Z,60.10
2023-02-18T08:21:31.770Z,60.30
2023-02-18T08:23:59.245Z,60.40
2023-02-18T08:26:26.374Z,60.40
2023-02-18T08:28:53.023Z,60.80
2023-02-18T08:31:21.293Z,60.60
2023-02-18T08:33:48.034Z,61.40
2023-02-18T08:36:15.237Z,60.70
2023-02-18T08:38:42.053Z,60.60
2023-02-18T08:41:09.177Z,60.70
2023-02-18T08:43:36.545Z,60.60
2023-02-18T08:46:03.585Z,60.60
2023-02-18T08:48:30.279Z,60.60
2023-02-18T08:50:57.239Z,60.60
2023-02-18T08:53:24.260Z,60.60
2023-02-18T08:55:51.056Z,60.60
2023-02-18T08:58:18.012Z,60.70
2023-02-18T09:00:44.843Z,60.50
2023-02-18T09:03:14.905Z,61.60
2023-02-18T09:05:41.789Z,60.60
2023-02-18T09:08:08.482Z,60.70
2023-02-18T09:10:35.332Z,60.60
2023-02-18T09:13:02.020Z,60.60
2023-02-18T09:15:28.798Z,60.70
2023-02-18T09:17:55.544Z,60.60
2023-02-18T09:20:22.267Z,62.10
2023-02-18T09:22:49.973Z,61.70
2023-02-18T09:25:16.666Z,60.40
2023-02-18T09:27:43.411Z,60.80
2023-02-18T09:30:10.615Z,61.50
2023-02-18T09:32:37.350Z,60.80
2023-02-18T09:35:05.911Z,61.50
2023-02-18T09:37:32.588Z,61.40
2023-02-18T09:39:59.995Z,61.10
2023-02-18T09:42:34.108Z,61.10
2023-02-18T09:45:02.269Z,60.20
2023-02-18T09:47:37.032Z,60.20
2023-02-18T09:50:06.034Z,60.00
2023-02-18T09:52:34.349Z,60.00
2023-02-18T09:55:20.747Z,60.20
2023-02-18T09:57:49.238Z,60.20
2023-02-18T10:00:21.625Z,60.10
2023-02-18T10:03:17.662Z,59.70
2023-02-18T10:06:02.054Z,59.70
2023-02-18T10:08:29.951Z,59.60
2023-02-18T10:10:56.792Z,59.80
2023-02-18T10:13:28.782Z,59.70
2023-02-18T10:15:55.536Z,59.70
2023-02-18T10:18:27.060Z,60.00
2023-02-18T10:20:57.326Z,59.40
2023-02-18T10:23:24.588Z,59.80
2023-02-18T10:25:51.582Z,59.40
2023-02-18T10:28:19.732Z,60.00
2023-02-18T10:30:50.063Z,59.40
2023-02-18T10:33:33.439Z,59.70
2023-02-18T10:36:00.053Z,59.30
2023-02-18T10:38:29.804Z,59.40
2023-02-18T10:40:58.518Z,59.20
2023-02-18T10:43:35.707Z,59.30
2023-02-18T10:46:13.628Z,59.20
2023-02-18T10:48:51.864Z,59.10
2023-02-18T10:51:22.969Z,59.10
2023-02-18T10:53:50.999Z,59.10
2023-02-18T10:56:36.138Z,59.00
2023-02-18T10:59:09.386Z,58.00
2023-02-18T11:01:36.125Z,59.70
2023-02-18T11:04:16.807Z,61.40
2023-02-18T11:06:44.620Z,58.90
2023-02-18T11:09:23.413Z,59.60
2023-02-18T11:11:53.667Z,60.00
2023-02-18T11:14:38.853Z,59.70
2023-02-18T11:17:17.516Z,59.00
2023-02-18T11:19:51.772Z,59.00
2023-02-18T11:22:20.281Z,59.10
2023-02-18T11:24:50.526Z,59.20
2023-02-18T11:27:20.340Z,59.10
2023-02-18T11:29:48.817Z,58.90
2023-02-18T11:32:16.111Z,59.10
2023-02-18T11:34:43.998Z,59.60
2023-02-18T11:37:12.581Z,59.20
2023-02-18T11:39:45.277Z,58.90
2023-02-18T11:42:17.424Z,59.70
2023-02-18T11:44:50.430Z,59.00
2023-02-18T11:47:17.156Z,58.70
2023-02-18T11:49:44.777Z,59.50
2023-02-18T11:52:25.012Z,59.00
2023-02-18T11:55:14.197Z,59.70
2023-02-18T11:57:50.999Z,58.70
2023-02-18T12:00:22.472Z,58.70
2023-02-18T12:02:51.425Z,58.70
2023-02-18T12:05:25.990Z,60.60
2023-02-18T12:08:00.268Z,58.70
2023-02-18T12:10:36.222Z,59.10
2023-02-18T12:13:05.903Z,59.40
2023-02-18T12:15:42.406Z,58.70
2023-02-18T12:18:16.396Z,58.60
2023-02-18T12:20:53.799Z,58.90
2023-02-18T12:23:37.965Z,59.60
2023-02-18T12:26:23.139Z,58.70
2023-02-18T12:29:05.190Z,59.70
2023-02-18T12:31:54.412Z,59.90
2023-02-18T12:34:36.737Z,59.80
2023-02-18T12:37:03.401Z,58.70
2023-02-18T12:40:03.591Z,58.70
2023-02-18T12:43:04.769Z,58.70
2023-02-18T12:45:50.514Z,60.00
2023-02-18T12:48:51.501Z,58.70
2023-02-18T12:51:18.648Z,58.70
2023-02-18T12:53:51.899Z,59.30
2023-02-18T12:56:45.114Z,58.70
2023-02-18T12:59:44.513Z,58.70
2023-02-18T13:02:40.814Z,58.70
2023-02-18T13:05:32.499Z,58.70
2023-02-18T13:08:05.265Z,58.70
2023-02-18T13:10:50.674Z,59.20
2023-02-18T13:13:24.674Z,58.70
2023-02-18T13:16:19.938Z,59.60
2023-02-18T13:19:00.894Z,59.40
2023-02-18T13:21:29.661Z,58.70
2023-02-18T13:24:01.432Z,58.80
2023-02-18T13:26:31.644Z,59.90
2023-02-18T13:29:07.990Z,59.20
2023-02-18T13:31:34.651Z,58.70
2023-02-18T13:34:12.000Z,59.00
2023-02-18T13:36:53.697Z,59.80
2023-02-18T13:39:23.274Z,58.70
2023-02-18T13:41:51.732Z,60.00
2023-02-18T13:44:22.139Z,59.20
2023-02-18T13:46:57.208Z,59.80
2023-02-18T13:49:37.593Z,59.20
2023-02-18T13:52:04.890Z,58.70
2023-02-18T13:54:44.749Z,58.70
2023-02-18T13:57:16.018Z,59.00
2023-02-18T13:59:49.647Z,58.70
2023-02-18T14:02:34.691Z,59.90
2023-02-18T14:05:20.040Z,58.70
2023-02-18T14:07:52.976Z,59.70
2023-02-18T14:10:19.672Z,58.70
2023-02-18T14:12:58.190Z,59.00
2023-02-18T14:15:24.984Z,58.70
2023-02-18T14:18:03.970Z,58.70
2023-02-18T14:20:32.600Z,58.70
2023-02-18T14:23:00.229Z,58.60
2023-02-18T14:26:04.802Z,59.80
2023-02-18T14:28:34.227Z,58.70
2023-02-18T14:31:13.312Z,59.20
2023-02-18T14:34:05.717Z,58.60
2023-02-18T14:36:49.032Z,58.60
2023-02-18T14:39:37.845Z,58.60
2023-02-18T14:42:31.934Z,58.60
2023-02-18T14:45:31.097Z,58.60
2023-02-18T14:47:57.760Z,58.60
2023-02-18T14:50:24.645Z,58.60
2023-02-18T14:52:58.445Z,58.60
2023-02-18T14:55:27.413Z,58.60
2023-02-18T14:57:55.797Z,58.60
2023-02-18T15:00:25.286Z,58.60
2023-02-18T15:02:53.546Z,59.20
2023-02-18T15:05:21.709Z,58.70
2023-02-18T15:08:05.138Z,58.70
2023-02-18T15:10:52.232Z,58.70
2023-02-18T15:13:26.846Z,58.70
2023-02-18T15:15:59.036Z,58.70
2023-02-18T15:18:28.821Z,58.70
2023-02-18T15:20:55.922Z,58.80
2023-02-18T15:23:22.713Z,58.80
2023-02-18T15:25:52.429Z,58.70
2023-02-18T15:28:31.183Z,58.80
2023-02-18T15:31:02.362Z,59.30
2023-02-18T15:33:29.698Z,58.80
2023-02-18T15:36:05.652Z,60.10
2023-02-18T15:38:32.470Z,58.70
2023-02-18T15:40:59.854Z,58.80
2023-02-18T15:43:27.319Z,58.70
2023-02-18T15:45:58.060Z,58.80
2023-02-18T15:48:33.558Z,58.80
2023-02-18T15:51:16.168Z,58.80
2023-02-18T15:53:45.090Z,58.70
2023-02-18T15:56:17.548Z,58.80
2023-02-18T15:58:44.280Z,58.80
2023-02-18T16:01:27.407Z,58.80
2023-02-18T16:03:54.575Z,58.80
2023-02-18T16:06:26.134Z,58.90
2023-02-18T16:09:22.266Z,58.80
2023-02-18T16:11:51.432Z,58.80
2023-02-18T16:14:27.096Z,58.90
2023-02-18T16:17:16.901Z,58.80
2023-02-18T16:20:02.846Z,59.00
2023-02-18T16:22:30.889Z,58.90
2023-02-18T16:24:59.043Z,58.90
2023-02-18T16:27:34.718Z,58.90
2023-02-18T16:30:03.827Z,59.40
2023-02-18T16:32:31.097Z,59.00
2023-02-18T16:34:57.885Z,58.90
2023-02-18T16:37:39.832Z,59.50
2023-02-18T16:40:15.714Z,58.90
2023-02-18T16:42:42.415Z,58.90
2023-02-18T16:45:11.891Z,59.00
2023-02-18T16:47:39.100Z,58.90
2023-02-18T16:50:06.433Z,58.90
2023-02-18T16:52:33.119Z,58.90
2023-02-18T16:54:59.882Z,59.00
2023-02-18T16:57:27.076Z,58.90
2023-02-18T16:59:53.754Z,58.90
2023-02-18T17:02:22.016Z,59.00
2023-02-18T17:04:48.740Z,58.90
2023-02-18T17:07:15.400Z,59.00
2023-02-18T17:09:42.040Z,59.00
2023-02-18T17:12:09.238Z,59.00
2023-02-18T17:14:36.081Z,58.90
2023-02-18T17:17:06.097Z,59.00
2023-02-18T17:19:32.768Z,59.00
2023-02-18T17:21:59.414Z,58.90
2023-02-18T17:24:26.050Z,59.00
2023-02-18T17:26:52.700Z,59.00
2023-02-18T17:29:19.549Z,59.00
2023-02-18T17:31:47.312Z,59.00
2023-02-18T17:34:16.521Z,59.80
2023-02-18T17:36:45.397Z,59.00
2023-02-18T17:39:13.042Z,58.90
2023-02-18T17:41:39.786Z,58.90
2023-02-18T17:44:32.894Z,59.00
2023-02-18T17:46:59.712Z,59.00
2023-02-18T17:49:26.326Z,59.00
2023-02-18T17:51:53.132Z,59.00
2023-02-18T17:54:20.230Z,59.00
2023-02-18T17:56:46.894Z,59.00
2023-02-18T17:59:13.691Z,59.00
2023-02-18T18:01:40.681Z,59.00
2023-02-18T18:04:14.271Z,59.00
2023-02-18T18:06:41.152Z,59.00
2023-02-18T18:09:08.190Z,59.00
2023-02-18T18:11:35.052Z,59.70
2023-02-18T18:14:01.709Z,59.00
2023-02-18T18:16:28.497Z,59.00
2023-02-18T18:18:55.273Z,59.00
2023-02-18T18:21:23.542Z,59.00
2023-02-18T18:23:50.770Z,59.00
2023-02-18T18:26:17.338Z,59.00
2023-02-18T18:28:44.116Z,59.00
2023-02-18T18:31:15.608Z,59.00
2023-02-18T18:33:43.105Z,58.90
2023-02-18T18:36:10.148Z,59.00
2023-02-18T18:38:37.026Z,59.00
2023-02-18T18:41:03.803Z,59.60
2023-02-18T18:43:33.204Z,59.00
2023-02-18T18:46:00.466Z,59.00
2023-02-18T18:48:27.422Z,59.80
2023-02-18T18:50:54.470Z,59.00
2023-02-18T18:53:21.466Z,59.00
2023-02-18T18:55:48.696Z,59.00
2023-02-18T18:58:20.435Z,59.00
2023-02-18T19:00:52.310Z,59.00
2023-02-18T19:03:19.828Z,59.00
2023-02-18T19:05:47.220Z,59.00
2023-02-18T19:08:16.643Z,58.90
2023-02-18T19:10:44.558Z,59.00
2023-02-18T19:13:15.897Z,58.90
2023-02-18T19:15:42.750Z,58.90
2023-02-18T19:18:13.430Z,59.00
2023-02-18T19:20:42.677Z,59.00
2023-02-18T19:23:10.007Z,59.00
2023-02-18T19:25:37.586Z,59.00
2023-02-18T19:28:04.459Z,58.90
2023-02-18T19:30:32.155Z,59.00
2023-02-18T19:32:59.705Z,59.00
2023-02-18T19:35:26.887Z,59.00
2023-02-18T19:37:53.896Z,59.00
2023-02-18T19:40:21.816Z,59.10
2023-02-18T19:42:48.775Z,59.00
2023-02-18T19:45:16.296Z,59.10
2023-02-18T19:47:43.061Z,59.10
2023-02-18T19:50:11.480Z,59.00
2023-02-18T19:52:38.133Z,59.00
2023-02-18T19:55:05.086Z,59.10
2023-02-18T19:57:32.023Z,59.10
2023-02-18T19:59:58.617Z,59.00
2023-02-18T20:02:25.874Z,59.00
2023-02-18T20:04:52.654Z,59.00
2023-02-18T20:07:20.667Z,59.10
2023-02-18T20:09:47.358Z,59.10
2023-02-18T20:12:14.023Z,59.10
2023-02-18T20:14:42.933Z,59.10
2023-02-18T20:17:10.074Z,59.10
2023-02-18T20:19:36.788Z,59.10
2023-02-18T20:22:04.495Z,59.10
2023-02-18T20:24:31.992Z,59.10
2023-02-18T20:27:00.679Z,59.10
2023-02-18T20:29:29.758Z,59.10
2023-02-18T20:31:56.579Z,59.20
2023-02-18T20:34:23.314Z,59.10
2023-02-18T20:36:50.308Z,59.10
2023-02-18T20:39:17.927Z,59.10
2023-02-18T20:41:46.110Z,59.10
2023-02-18T20:44:13.626Z,59.10
2023-02-18T20:46:40.415Z,59.10
2023-02-18T20:49:08.860Z,59.10
2023-02-18T20:51:35.607Z,59.10
2023-02-18T20:54:03.813Z,59.10
2023-02-18T20:56:30.544Z,59.10
2023-02-18T20:58:57.348Z,59.20
2023-02-18T21:01:24.160Z,59.20
2023-02-18T21:03:50.929Z,59.50
2023-02-18T21:06:19.271Z,59.20
2023-02-18T21:08:46.756Z,59.20
2023-02-18T21:11:17.900Z,59.10
2023-02-18T21:13:48.445Z,59.10
2023-02-18T21:16:16.216Z,59.10
2023-02-18T21:18:42.945Z,59.10
2023-02-18T21:21:10.618Z,59.20
2023-02-18T21:23:38.381Z,59.20
2023-02-18T21:26:06.460Z,59.20
2023-02-18T21:28:33.187Z,59.20
2023-02-18T21:30:59.882Z,59.20
2023-02-18T21:33:26.658Z,59.50
2023-02-18T21:35:53.622Z,59.20
2023-02-18T21:38:20.784Z,59.20
2023-02-18T21:40:47.684Z,59.20
2023-02-18T21:43:14.722Z,59.20
2023-02-18T21:45:41.441Z,59.20
2023-02-18T21:48:28.034Z,59.20
2023-02-18T21:50:54.679Z,59.10
2023-02-18T21:53:21.312Z,59.50
2023-02-18T21:56:03.001Z,59.20
2023-02-18T21:58:30.452Z,59.20
2023-02-18T22:00:58.024Z,59.20
2023-02-18T22:03:24.905Z,59.20
2023-02-18T22:05:51.676Z,59.20
2023-02-18T22:08:18.337Z,59.20
2023-02-18T22:10:45.056Z,59.30
2023-02-18T22:13:11.712Z,59.20
2023-02-18T22:15:40.516Z,59.20
2023-02-18T22:18:08.550Z,59.20
2023-02-18T22:20:35.213Z,59.20
2023-02-18T22:23:01.885Z,59.20
2023-02-18T22:25:28.584Z,59.20
2023-02-18T22:27:55.277Z,59.20
2023-02-18T22:30:21.892Z,59.20
2023-02-18T22:32:48.618Z,59.20
2023-02-18T22:35:16.790Z,59.20
2023-02-18T22:37:43.613Z,59.20
2023-02-18T22:40:10.437Z,59.20
2023-02-18T22:42:37.092Z,59.20
2023-02-18T22:45:04.054Z,59.40
2023-02-18T22:47:30.641Z,59.20
2023-02-18T22:49:57.305Z,59.20
2023-02-18T22:52:24.016Z,59.20
2023-02-18T22:54:50.683Z,59.20
2023-02-18T22:57:17.326Z,59.30
2023-02-18T22:59:43.980Z,59.30
2023-02-18T23:02:10.664Z,59.40
2023-02-18T23:04:38.797Z,59.50
2023-02-18T23:07:05.505Z,59.50
2023-02-18T23:09:32.170Z,59.60
2023-02-18T23:11:59.042Z,59.60
2023-02-18T23:14:28.073Z,60.50
2023-02-18T23:17:14.183Z,61.60
2023-02-18T23:19:46.375Z,59.70
2023-02-18T23:22:16.184Z,59.80
2023-02-18T23:24:45.046Z,59.80
2023-02-18T23:27:14.167Z,61.20
2023-02-18T23:29:41.390Z,61.30
2023-02-18T23:32:08.181Z,60.60
2023-02-18T23:34:35.012Z,60.00
2023-02-18T23:37:01.780Z,60.30
2023-02-18T23:39:29.405Z,60.10
2023-02-18T23:41:56.292Z,60.00
2023-02-18T23:44:23.887Z,60.00
2023-02-18T23:46:50.807Z,60.10
2023-02-18T23:49:18.793Z,60.10
2023-02-18T23:51:45.824Z,60.10
2023-02-18T23:54:12.556Z,61.50
2023-02-18T23:56:39.697Z,61.90
2023-02-18T23:59:06.901Z,60.20
